sensor_id;sensor_type;location;lat;lon;timestamp;pressure;altitude;pressure_sealevel;temperature;humidity
63903;BME280;50072;50.678;13.938;2023-06-22T00:02:17;99806.00;;;20.37;87.01
63903;BME280;50072;50.678;13.938;2023-06-22T00:04:43;99801.63;;;20.34;87.43
63903;BME280;50072;50.678;13.938;2023-06-22T00:07:09;99806.00;;;20.37;87.40
63903;BME280;50072;50.678;13.938;2023-06-22T00:09:35;99803.75;;;20.29;88.08
63903;BME280;50072;50.678;13.938;2023-06-22T00:12:01;99801.78;;;20.16;89.56
63903;BME280;50072;50.678;13.938;2023-06-22T00:14:27;99805.50;;;20.15;90.24
63903;BME280;50072;50.678;13.938;2023-06-22T00:16:53;99803.56;;;20.17;91.01
63903;BME280;50072;50.678;13.938;2023-06-22T00:19:23;99808.59;;;20.09;92.06
63903;BME280;50072;50.678;13.938;2023-06-22T00:21:52;99804.34;;;20.05;92.61
63903;BME280;50072;50.678;13.938;2023-06-22T00:24:21;99807.22;;;20.02;93.04
63903;BME280;50072;50.678;13.938;2023-06-22T00:26:48;99811.03;;;19.99;93.66
63903;BME280;50072;50.678;13.938;2023-06-22T00:29:14;99816.38;;;20.01;93.72
63903;BME280;50072;50.678;13.938;2023-06-22T00:31:41;99827.59;;;19.95;93.83
63903;BME280;50072;50.678;13.938;2023-06-22T00:34:08;99819.72;;;19.90;94.52
63903;BME280;50072;50.678;13.938;2023-06-22T00:36:35;99823.03;;;19.81;95.99
63903;BME280;50072;50.678;13.938;2023-06-22T00:39:01;99807.84;;;19.77;96.12
63903;BME280;50072;50.678;13.938;2023-06-22T00:41:28;99809.56;;;19.78;96.02
63903;BME280;50072;50.678;13.938;2023-06-22T00:43:57;99819.75;;;19.74;96.18
63903;BME280;50072;50.678;13.938;2023-06-22T00:46:24;99825.53;;;19.68;96.41
63903;BME280;50072;50.678;13.938;2023-06-22T00:48:51;99828.06;;;19.57;97.30
63903;BME280;50072;50.678;13.938;2023-06-22T00:51:17;99823.16;;;19.47;97.65
63903;BME280;50072;50.678;13.938;2023-06-22T00:53:51;99814.97;;;19.33;97.96
63903;BME280;50072;50.678;13.938;2023-06-22T00:56:19;99813.31;;;19.30;98.30
63903;BME280;50072;50.678;13.938;2023-06-22T00:58:46;99816.31;;;19.26;98.54
63903;BME280;50072;50.678;13.938;2023-06-22T01:01:13;99814.28;;;19.29;98.56
63903;BME280;50072;50.678;13.938;2023-06-22T01:03:39;99804.50;;;19.27;98.96
63903;BME280;50072;50.678;13.938;2023-06-22T01:06:21;99800.66;;;19.15;100.00
63903;BME280;50072;50.678;13.938;2023-06-22T01:09:00;99798.97;;;19.12;100.00
63903;BME280;50072;50.678;13.938;2023-06-22T01:11:37;99806.63;;;19.06;100.00
63903;BME280;50072;50.678;13.938;2023-06-22T01:14:43;99805.03;;;18.86;100.00
63903;BME280;50072;50.678;13.938;2023-06-22T01:17:11;99802.31;;;18.86;100.00
63903;BME280;50072;50.678;13.938;2023-06-22T01:19:57;99809.66;;;18.84;100.00
63903;BME280;50072;50.678;13.938;2023-06-22T01:22:26;99817.63;;;18.87;100.00
63903;BME280;50072;50.678;13.938;2023-06-22T01:30:07;99809.56;;;18.53;100.00
63903;BME280;50072;50.678;13.938;2023-06-22T01:32:37;99801.69;;;18.49;100.00
63903;BME280;50072;50.678;13.938;2023-06-22T01:35:06;99812.44;;;18.50;100.00
63903;BME280;50072;50.678;13.938;2023-06-22T01:37:34;99808.84;;;18.50;100.00
63903;BME280;50072;50.678;13.938;2023-06-22T01:40:02;99816.19;;;18.48;100.00
63903;BME280;50072;50.678;13.938;2023-06-22T01:42:30;99818.13;;;18.45;100.00
63903;BME280;50072;50.678;13.938;2023-06-22T01:44:56;99821.25;;;18.54;100.00
63903;BME280;50072;50.678;13.938;2023-06-22T01:47:24;99814.97;;;18.37;100.00
63903;BME280;50072;50.678;13.938;2023-06-22T01:49:51;99817.38;;;18.26;100.00
63903;BME280;50072;50.678;13.938;2023-06-22T01:52:18;99815.34;;;18.29;100.00
63903;BME280;50072;50.678;13.938;2023-06-22T01:54:44;99807.06;;;18.33;100.00
63903;BME280;50072;50.678;13.938;2023-06-22T01:57:10;99810.38;;;18.22;100.00
63903;BME280;50072;50.678;13.938;2023-06-22T02:00:04;99813.59;;;17.95;100.00
63903;BME280;50072;50.678;13.938;2023-06-22T02:02:49;99807.25;;;17.79;100.00
63903;BME280;50072;50.678;13.938;2023-06-22T02:05:18;99815.75;;;17.71;100.00
63903;BME280;50072;50.678;13.938;2023-06-22T02:07:49;99820.38;;;17.69;100.00
63903;BME280;50072;50.678;13.938;2023-06-22T02:10:19;99815.03;;;17.67;100.00
63903;BME280;50072;50.678;13.938;2023-06-22T02:12:47;99810.50;;;17.68;100.00
63903;BME280;50072;50.678;13.938;2023-06-22T02:15:14;99810.16;;;17.74;100.00
63903;BME280;50072;50.678;13.938;2023-06-22T02:17:42;99815.66;;;17.72;100.00
63903;BME280;50072;50.678;13.938;2023-06-22T02:20:14;99819.19;;;17.74;100.00
63903;BME280;50072;50.678;13.938;2023-06-22T02:22:41;99809.13;;;17.76;100.00
63903;BME280;50072;50.678;13.938;2023-06-22T02:25:08;99821.38;;;17.84;100.00
63903;BME280;50072;50.678;13.938;2023-06-22T02:27:34;99811.59;;;17.81;100.00
63903;BME280;50072;50.678;13.938;2023-06-22T02:29:59;99806.91;;;17.85;100.00
63903;BME280;50072;50.678;13.938;2023-06-22T02:32:25;99812.94;;;17.90;100.00
63903;BME280;50072;50.678;13.938;2023-06-22T02:34:52;99811.50;;;17.83;100.00
63903;BME280;50072;50.678;13.938;2023-06-22T02:37:18;99815.38;;;17.79;100.00
63903;BME280;50072;50.678;13.938;2023-06-22T02:39:44;99801.66;;;17.82;100.00
63903;BME280;50072;50.678;13.938;2023-06-22T02:42:10;99801.66;;;17.82;100.00
63903;BME280;50072;50.678;13.938;2023-06-22T02:44:36;99802.84;;;17.76;100.00
63903;BME280;50072;50.678;13.938;2023-06-22T02:47:02;99794.00;;;17.72;100.00
63903;BME280;50072;50.678;13.938;2023-06-22T02:49:29;99801.09;;;17.75;100.00
63903;BME280;50072;50.678;13.938;2023-06-22T02:51:57;99798.81;;;17.67;100.00
63903;BME280;50072;50.678;13.938;2023-06-22T02:54:23;99807.56;;;17.55;100.00
63903;BME280;50072;50.678;13.938;2023-06-22T02:56:51;99807.22;;;17.26;100.00
63903;BME280;50072;50.678;13.938;2023-06-22T02:59:18;99813.63;;;17.06;100.00
63903;BME280;50072;50.678;13.938;2023-06-22T03:01:51;99812.22;;;16.97;100.00
63903;BME280;50072;50.678;13.938;2023-06-22T03:04:18;99813.28;;;16.95;100.00
63903;BME280;50072;50.678;13.938;2023-06-22T03:06:53;99806.44;;;16.86;100.00
63903;BME280;50072;50.678;13.938;2023-06-22T03:09:23;99811.13;;;17.01;100.00
63903;BME280;50072;50.678;13.938;2023-06-22T03:11:55;99819.59;;;17.13;100.00
63903;BME280;50072;50.678;13.938;2023-06-22T03:14:23;99819.22;;;17.20;100.00
63903;BME280;50072;50.678;13.938;2023-06-22T03:16:48;99814.59;;;17.22;100.00
63903;BME280;50072;50.678;13.938;2023-06-22T03:19:14;99816.03;;;17.30;100.00
63903;BME280;50072;50.678;13.938;2023-06-22T03:21:44;99815.59;;;17.39;100.00
63903;BME280;50072;50.678;13.938;2023-06-22T03:24:10;99805.78;;;17.36;100.00
63903;BME280;50072;50.678;13.938;2023-06-22T03:26:36;99799.13;;;17.43;100.00
63903;BME280;50072;50.678;13.938;2023-06-22T03:29:02;99801.81;;;17.43;100.00
63903;BME280;50072;50.678;13.938;2023-06-22T03:31:27;99791.66;;;17.49;100.00
63903;BME280;50072;50.678;13.938;2023-06-22T03:33:53;99794.97;;;17.54;100.00
63903;BME280;50072;50.678;13.938;2023-06-22T03:36:19;99793.78;;;17.59;100.00
63903;BME280;50072;50.678;13.938;2023-06-22T03:38:48;99800.63;;;17.67;100.00
63903;BME280;50072;50.678;13.938;2023-06-22T03:41:14;99802.47;;;17.66;100.00
63903;BME280;50072;50.678;13.938;2023-06-22T03:43:41;99803.66;;;17.60;100.00
63903;BME280;50072;50.678;13.938;2023-06-22T03:46:07;99814.16;;;17.49;100.00
63903;BME280;50072;50.678;13.938;2023-06-22T03:48:33;99801.03;;;17.41;100.00
63903;BME280;50072;50.678;13.938;2023-06-22T03:51:00;99808.34;;;17.57;100.00
63903;BME280;50072;50.678;13.938;2023-06-22T03:53:27;99809.94;;;17.61;100.00
63903;BME280;50072;50.678;13.938;2023-06-22T03:55:53;99810.97;;;17.58;100.00
63903;BME280;50072;50.678;13.938;2023-06-22T03:58:20;99822.75;;;17.75;100.00
63903;BME280;50072;50.678;13.938;2023-06-22T04:00:50;99822.97;;;17.88;100.00
63903;BME280;50072;50.678;13.938;2023-06-22T04:03:17;99829.00;;;17.94;100.00
63903;BME280;50072;50.678;13.938;2023-06-22T04:05:46;99825.94;;;18.01;100.00
63903;BME280;50072;50.678;13.938;2023-06-22T04:08:14;99824.28;;;17.98;100.00
63903;BME280;50072;50.678;13.938;2023-06-22T04:10:40;99810.41;;;18.04;100.00
63903;BME280;50072;50.678;13.938;2023-06-22T04:13:06;99815.59;;;18.09;100.00
63903;BME280;50072;50.678;13.938;2023-06-22T04:15:32;99824.31;;;18.14;100.00
63903;BME280;50072;50.678;13.938;2023-06-22T04:17:58;99816.66;;;18.22;100.00
63903;BME280;50072;50.678;13.938;2023-06-22T04:20:23;99818.97;;;18.30;100.00
63903;BME280;50072;50.678;13.938;2023-06-22T04:22:53;99816.78;;;18.37;100.00
63903;BME280;50072;50.678;13.938;2023-06-22T04:25:19;99805.53;;;18.44;100.00
63903;BME280;50072;50.678;13.938;2023-06-22T04:27:46;99806.75;;;18.55;100.00
63903;BME280;50072;50.678;13.938;2023-06-22T04:30:12;99799.06;;;18.63;100.00
63903;BME280;50072;50.678;13.938;2023-06-22T04:32:42;99798.53;;;18.72;100.00
63903;BME280;50072;50.678;13.938;2023-06-22T04:35:10;99802.91;;;18.75;100.00
63903;BME280;50072;50.678;13.938;2023-06-22T04:37:36;99811.50;;;18.83;100.00
63903;BME280;50072;50.678;13.938;2023-06-22T04:40:03;99809.56;;;18.85;100.00
63903;BME280;50072;50.678;13.938;2023-06-22T04:42:31;99820.78;;;18.95;100.00
63903;BME280;50072;50.678;13.938;2023-06-22T04:44:57;99820.47;;;19.01;100.00
63903;BME280;50072;50.678;13.938;2023-06-22T04:47:23;99819.91;;;19.10;100.00
63903;BME280;50072;50.678;13.938;2023-06-22T04:49:48;99828.38;;;19.20;100.00
63903;BME280;50072;50.678;13.938;2023-06-22T04:52:15;99833.19;;;19.15;100.00
63903;BME280;50072;50.678;13.938;2023-06-22T04:54:45;99844.56;;;19.22;100.00
63903;BME280;50072;50.678;13.938;2023-06-22T04:57:16;99843.34;;;19.27;100.00
63903;BME280;50072;50.678;13.938;2023-06-22T04:59:42;99848.31;;;19.35;100.00
63903;BME280;50072;50.678;13.938;2023-06-22T05:02:09;99845.78;;;19.32;100.00
63903;BME280;50072;50.678;13.938;2023-06-22T05:04:35;99846.50;;;19.36;100.00
63903;BME280;50072;50.678;13.938;2023-06-22T05:07:04;99866.59;;;19.47;100.00
63903;BME280;50072;50.678;13.938;2023-06-22T05:09:31;99869.56;;;19.59;100.00
63903;BME280;50072;50.678;13.938;2023-06-22T05:12:00;99874.19;;;19.73;100.00
63903;BME280;50072;50.678;13.938;2023-06-22T05:14:29;99888.91;;;19.99;100.00
63903;BME280;50072;50.678;13.938;2023-06-22T05:16:56;99895.84;;;20.19;100.00
63903;BME280;50072;50.678;13.938;2023-06-22T05:19:25;99905.47;;;20.39;100.00
63903;BME280;50072;50.678;13.938;2023-06-22T05:21:59;99918.72;;;20.45;100.00
63903;BME280;50072;50.678;13.938;2023-06-22T05:24:25;99908.81;;;20.59;100.00
63903;BME280;50072;50.678;13.938;2023-06-22T05:26:51;99906.41;;;20.68;100.00
63903;BME280;50072;50.678;13.938;2023-06-22T05:29:17;99906.13;;;20.73;100.00
63903;BME280;50072;50.678;13.938;2023-06-22T05:31:43;99898.56;;;20.78;100.00
63903;BME280;50072;50.678;13.938;2023-06-22T05:34:09;99901.84;;;20.83;100.00
63903;BME280;50072;50.678;13.938;2023-06-22T05:36:35;99907.28;;;20.83;100.00
63903;BME280;50072;50.678;13.938;2023-06-22T05:39:10;99887.47;;;20.81;100.00
63903;BME280;50072;50.678;13.938;2023-06-22T05:41:38;99892.22;;;20.78;100.00
63903;BME280;50072;50.678;13.938;2023-06-22T05:44:04;99888.75;;;20.76;100.00
63903;BME280;50072;50.678;13.938;2023-06-22T05:46:31;99884.53;;;20.84;100.00
63903;BME280;50072;50.678;13.938;2023-06-22T05:48:58;99882.63;;;20.86;100.00
63903;BME280;50072;50.678;13.938;2023-06-22T05:51:24;99890.56;;;20.90;100.00
63903;BME280;50072;50.678;13.938;2023-06-22T05:53:50;99890.66;;;21.02;100.00
63903;BME280;50072;50.678;13.938;2023-06-22T05:56:17;99894.03;;;21.06;100.00
63903;BME280;50072;50.678;13.938;2023-06-22T05:58:42;99887.41;;;21.10;100.00
63903;BME280;50072;50.678;13.938;2023-06-22T06:01:09;99889.94;;;21.13;100.00
63903;BME280;50072;50.678;13.938;2023-06-22T06:03:35;99891.28;;;21.20;100.00
63903;BME280;50072;50.678;13.938;2023-06-22T06:06:06;99890.22;;;21.23;100.00
63903;BME280;50072;50.678;13.938;2023-06-22T06:08:32;99885.81;;;21.35;100.00
63903;BME280;50072;50.678;13.938;2023-06-22T06:10:59;99871.56;;;21.44;100.00
63903;BME280;50072;50.678;13.938;2023-06-22T06:13:25;99879.44;;;21.49;100.00
63903;BME280;50072;50.678;13.938;2023-06-22T06:15:52;99874.28;;;21.59;100.00
63903;BME280;50072;50.678;13.938;2023-06-22T06:18:21;99873.09;;;21.63;97.93
63903;BME280;50072;50.678;13.938;2023-06-22T06:20:47;99883.56;;;21.69;96.91
63903;BME280;50072;50.678;13.938;2023-06-22T06:23:15;99870.97;;;21.81;95.61
63903;BME280;50072;50.678;13.938;2023-06-22T06:25:41;99874.91;;;21.89;95.57
63903;BME280;50072;50.678;13.938;2023-06-22T06:28:07;99861.63;;;21.98;96.19
63903;BME280;50072;50.678;13.938;2023-06-22T06:30:33;99862.28;;;22.01;96.76
63903;BME280;50072;50.678;13.938;2023-06-22T06:32:59;99874.09;;;22.15;95.00
63903;BME280;50072;50.678;13.938;2023-06-22T06:35:25;99864.03;;;22.28;94.79
63903;BME280;50072;50.678;13.938;2023-06-22T06:37:51;99856.47;;;22.33;95.24
63903;BME280;50072;50.678;13.938;2023-06-22T06:40:18;99852.72;;;22.47;94.52
63903;BME280;50072;50.678;13.938;2023-06-22T06:42:46;99845.66;;;22.57;95.04
63903;BME280;50072;50.678;13.938;2023-06-22T06:45:19;99832.84;;;22.71;94.10
63903;BME280;50072;50.678;13.938;2023-06-22T06:47:46;99828.31;;;22.83;94.82
63903;BME280;50072;50.678;13.938;2023-06-22T06:50:14;99827.19;;;23.11;93.29
63903;BME280;50072;50.678;13.938;2023-06-22T06:52:40;99809.19;;;23.33;92.65
63903;BME280;50072;50.678;13.938;2023-06-22T06:55:07;99794.28;;;23.61;90.35
63903;BME280;50072;50.678;13.938;2023-06-22T06:57:34;99782.09;;;23.89;89.83
63903;BME280;50072;50.678;13.938;2023-06-22T07:00:01;99764.47;;;24.27;87.81
63903;BME280;50072;50.678;13.938;2023-06-22T07:02:27;99742.09;;;24.45;86.55
63903;BME280;50072;50.678;13.938;2023-06-22T07:04:56;99746.56;;;24.57;84.44
63903;BME280;50072;50.678;13.938;2023-06-22T07:07:21;99752.31;;;24.66;84.82
63903;BME280;50072;50.678;13.938;2023-06-22T07:09:48;99766.47;;;24.71;83.82
63903;BME280;50072;50.678;13.938;2023-06-22T07:12:14;99769.69;;;24.76;82.01
63903;BME280;50072;50.678;13.938;2023-06-22T07:14:41;99755.00;;;24.77;82.98
63903;BME280;50072;50.678;13.938;2023-06-22T07:17:07;99759.47;;;24.78;80.32
63903;BME280;50072;50.678;13.938;2023-06-22T07:19:33;99761.09;;;24.80;80.79
63903;BME280;50072;50.678;13.938;2023-06-22T07:21:59;99760.41;;;24.99;79.52
63903;BME280;50072;50.678;13.938;2023-06-22T07:24:27;99759.94;;;25.06;79.58
63903;BME280;50072;50.678;13.938;2023-06-22T07:26:53;99762.25;;;25.10;80.17
63903;BME280;50072;50.678;13.938;2023-06-22T07:29:20;99766.94;;;25.20;78.36
63903;BME280;50072;50.678;13.938;2023-06-22T07:31:50;99766.56;;;25.36;80.03
63903;BME280;50072;50.678;13.938;2023-06-22T07:34:18;99770.75;;;25.51;78.13
63903;BME280;50072;50.678;13.938;2023-06-22T07:36:45;99765.06;;;25.64;77.69
63903;BME280;50072;50.678;13.938;2023-06-22T07:39:12;99767.84;;;25.74;77.23
63903;BME280;50072;50.678;13.938;2023-06-22T07:41:40;99773.25;;;25.85;77.42
63903;BME280;50072;50.678;13.938;2023-06-22T07:44:07;99775.06;;;25.96;77.60
63903;BME280;50072;50.678;13.938;2023-06-22T07:46:33;99773.25;;;25.85;75.86
63903;BME280;50072;50.678;13.938;2023-06-22T07:49:00;99773.63;;;26.13;75.43
63903;BME280;50072;50.678;13.938;2023-06-22T07:51:27;99772.41;;;26.27;75.10
63903;BME280;50072;50.678;13.938;2023-06-22T07:53:53;99777.94;;;26.37;73.50
63903;BME280;50072;50.678;13.938;2023-06-22T07:56:19;99775.78;;;26.40;73.73
63903;BME280;50072;50.678;13.938;2023-06-22T07:58:46;99781.06;;;26.63;73.10
63903;BME280;50072;50.678;13.938;2023-06-22T08:01:16;99770.00;;;26.74;72.20
63903;BME280;50072;50.678;13.938;2023-06-22T08:03:43;99768.78;;;26.67;73.38
63903;BME280;50072;50.678;13.938;2023-06-22T08:06:09;99766.53;;;26.82;73.27
63903;BME280;50072;50.678;13.938;2023-06-22T08:08:36;99763.38;;;26.77;71.40
63903;BME280;50072;50.678;13.938;2023-06-22T08:11:03;99758.63;;;26.98;70.26
63903;BME280;50072;50.678;13.938;2023-06-22T08:13:30;99770.66;;;27.17;71.04
63903;BME280;50072;50.678;13.938;2023-06-22T08:15:55;99767.78;;;27.28;69.48
63903;BME280;50072;50.678;13.938;2023-06-22T08:18:22;99772.13;;;27.21;70.57
63903;BME280;50072;50.678;13.938;2023-06-22T08:20:48;99765.88;;;27.19;70.52
63903;BME280;50072;50.678;13.938;2023-06-22T08:23:15;99771.53;;;27.27;69.55
63903;BME280;50072;50.678;13.938;2023-06-22T08:25:41;99769.38;;;27.21;70.63
63903;BME280;50072;50.678;13.938;2023-06-22T08:28:07;99771.25;;;27.30;70.31
63903;BME280;50072;50.678;13.938;2023-06-22T08:30:34;99769.22;;;27.32;69.98
63903;BME280;50072;50.678;13.938;2023-06-22T08:33:01;99770.53;;;27.28;69.83
63903;BME280;50072;50.678;13.938;2023-06-22T08:35:27;99770.88;;;27.35;68.78
63903;BME280;50072;50.678;13.938;2023-06-22T08:37:55;99774.47;;;27.35;69.23
63903;BME280;50072;50.678;13.938;2023-06-22T08:40:22;99763.91;;;27.50;68.87
63903;BME280;50072;50.678;13.938;2023-06-22T08:42:48;99761.13;;;27.70;68.63
63903;BME280;50072;50.678;13.938;2023-06-22T08:45:15;99754.19;;;27.76;67.37
63903;BME280;50072;50.678;13.938;2023-06-22T08:47:41;99756.06;;;27.75;66.86
63903;BME280;50072;50.678;13.938;2023-06-22T08:50:09;99752.88;;;27.99;66.04
63903;BME280;50072;50.678;13.938;2023-06-22T08:52:36;99751.56;;;28.03;65.19
63903;BME280;50072;50.678;13.938;2023-06-22T08:55:03;99751.41;;;27.95;65.32
63903;BME280;50072;50.678;13.938;2023-06-22T08:57:30;99750.13;;;27.99;64.92
63903;BME280;50072;50.678;13.938;2023-06-22T08:59:56;99755.75;;;27.98;64.61
63903;BME280;50072;50.678;13.938;2023-06-22T09:02:27;99755.47;;;27.91;65.26
63903;BME280;50072;50.678;13.938;2023-06-22T09:04:59;99747.81;;;27.85;65.41
63903;BME280;50072;50.678;13.938;2023-06-22T09:07:25;99751.00;;;27.70;65.74
63903;BME280;50072;50.678;13.938;2023-06-22T09:09:51;99745.75;;;28.06;64.65
63903;BME280;50072;50.678;13.938;2023-06-22T09:12:19;99737.63;;;28.42;64.53
63903;BME280;50072;50.678;13.938;2023-06-22T09:14:48;99745.03;;;28.42;62.92
63903;BME280;50072;50.678;13.938;2023-06-22T09:17:14;99745.81;;;28.24;61.41
63903;BME280;50072;50.678;13.938;2023-06-22T09:19:40;99739.78;;;28.11;63.30
63903;BME280;50072;50.678;13.938;2023-06-22T09:22:07;99739.94;;;28.10;63.52
63903;BME280;50072;50.678;13.938;2023-06-22T09:24:34;99726.84;;;28.59;65.04
63903;BME280;50072;50.678;13.938;2023-06-22T09:27:00;99728.56;;;29.06;60.50
63903;BME280;50072;50.678;13.938;2023-06-22T09:29:27;99727.91;;;29.22;57.82
63903;BME280;50072;50.678;13.938;2023-06-22T09:31:53;99713.94;;;29.59;57.92
63903;BME280;50072;50.678;13.938;2023-06-22T09:34:22;99719.53;;;29.94;57.08
63903;BME280;50072;50.678;13.938;2023-06-22T09:36:48;99716.41;;;30.50;55.92
63903;BME280;50072;50.678;13.938;2023-06-22T09:39:14;99706.88;;;30.95;53.18
63903;BME280;50072;50.678;13.938;2023-06-22T09:41:41;99705.16;;;30.86;51.36
63903;BME280;50072;50.678;13.938;2023-06-22T09:44:06;99705.75;;;31.22;50.67
63903;BME280;50072;50.678;13.938;2023-06-22T09:46:33;99716.13;;;31.20;50.20
63903;BME280;50072;50.678;13.938;2023-06-22T09:49:00;99716.28;;;31.27;50.08
63903;BME280;50072;50.678;13.938;2023-06-22T09:51:27;99717.16;;;31.44;49.97
63903;BME280;50072;50.678;13.938;2023-06-22T09:53:53;99715.94;;;31.96;47.55
63903;BME280;50072;50.678;13.938;2023-06-22T09:56:20;99709.50;;;32.04;46.61
63903;BME280;50072;50.678;13.938;2023-06-22T09:58:46;99704.13;;;32.10;45.17
63903;BME280;50072;50.678;13.938;2023-06-22T10:01:13;99709.94;;;32.40;46.47
63903;BME280;50072;50.678;13.938;2023-06-22T10:03:42;99710.78;;;32.49;45.41
63903;BME280;50072;50.678;13.938;2023-06-22T10:06:08;99701.53;;;32.96;45.36
63903;BME280;50072;50.678;13.938;2023-06-22T10:08:35;99706.53;;;33.32;42.87
63903;BME280;50072;50.678;13.938;2023-06-22T10:11:03;99703.78;;;33.47;42.65
63903;BME280;50072;50.678;13.938;2023-06-22T10:13:30;99701.25;;;33.37;41.73
63903;BME280;50072;50.678;13.938;2023-06-22T10:15:56;99694.53;;;33.55;42.86
63903;BME280;50072;50.678;13.938;2023-06-22T10:18:23;99690.81;;;33.16;43.20
63903;BME280;50072;50.678;13.938;2023-06-22T10:20:50;99686.25;;;32.77;42.99
63903;BME280;50072;50.678;13.938;2023-06-22T10:23:22;99685.44;;;32.92;43.44
63903;BME280;50072;50.678;13.938;2023-06-22T10:25:48;99681.31;;;33.11;42.93
63903;BME280;50072;50.678;13.938;2023-06-22T10:28:14;99674.16;;;33.63;41.11
63903;BME280;50072;50.678;13.938;2023-06-22T10:30:41;99678.28;;;34.05;40.81
63903;BME280;50072;50.678;13.938;2023-06-22T10:33:08;99663.72;;;33.50;41.68
63903;BME280;50072;50.678;13.938;2023-06-22T10:35:34;99672.34;;;33.55;41.96
63903;BME280;50072;50.678;13.938;2023-06-22T10:38:01;99670.78;;;34.50;39.32
63903;BME280;50072;50.678;13.938;2023-06-22T10:40:27;99663.94;;;35.26;36.72
63903;BME280;50072;50.678;13.938;2023-06-22T10:42:52;99670.97;;;35.93;35.01
63903;BME280;50072;50.678;13.938;2023-06-22T10:45:19;99680.34;;;36.62;34.98
63903;BME280;50072;50.678;13.938;2023-06-22T10:47:45;99672.41;;;37.35;33.42
63903;BME280;50072;50.678;13.938;2023-06-22T10:50:12;99667.19;;;36.91;33.88
63903;BME280;50072;50.678;13.938;2023-06-22T10:52:38;99663.81;;;36.19;35.19
63903;BME280;50072;50.678;13.938;2023-06-22T10:55:05;99655.59;;;37.01;34.09
63903;BME280;50072;50.678;13.938;2023-06-22T10:57:32;99658.47;;;37.41;31.51
63903;BME280;50072;50.678;13.938;2023-06-22T10:59:58;99656.34;;;38.49;29.92
63903;BME280;50072;50.678;13.938;2023-06-22T11:02:25;99655.91;;;39.29;29.88
63903;BME280;50072;50.678;13.938;2023-06-22T11:04:51;99652.88;;;38.60;30.54
63903;BME280;50072;50.678;13.938;2023-06-22T11:07:18;99645.31;;;37.22;31.67
63903;BME280;50072;50.678;13.938;2023-06-22T11:09:44;99648.72;;;37.04;33.04
63903;BME280;50072;50.678;13.938;2023-06-22T11:12:10;99655.44;;;38.69;30.99
63903;BME280;50072;50.678;13.938;2023-06-22T11:14:38;99649.16;;;38.21;30.65
63903;BME280;50072;50.678;13.938;2023-06-22T11:17:04;99655.31;;;39.52;29.97
63903;BME280;50072;50.678;13.938;2023-06-22T11:19:31;99642.78;;;40.92;28.08
63903;BME280;50072;50.678;13.938;2023-06-22T11:21:58;99647.19;;;41.42;25.56
63903;BME280;50072;50.678;13.938;2023-06-22T11:24:24;99651.25;;;41.93;25.67
63903;BME280;50072;50.678;13.938;2023-06-22T11:26:50;99650.16;;;42.06;26.21
63903;BME280;50072;50.678;13.938;2023-06-22T11:29:16;99637.81;;;41.71;26.58
63903;BME280;50072;50.678;13.938;2023-06-22T11:31:42;99640.28;;;40.16;27.07
63903;BME280;50072;50.678;13.938;2023-06-22T11:34:10;99627.66;;;42.18;26.20
63903;BME280;50072;50.678;13.938;2023-06-22T11:36:36;99628.53;;;44.24;24.46
63903;BME280;50072;50.678;13.938;2023-06-22T11:39:03;99625.50;;;45.29;22.34
63903;BME280;50072;50.678;13.938;2023-06-22T11:41:28;99628.06;;;46.06;19.93
63903;BME280;50072;50.678;13.938;2023-06-22T11:43:55;99618.06;;;46.46;19.93
63903;BME280;50072;50.678;13.938;2023-06-22T11:46:21;99627.22;;;45.30;20.14
63903;BME280;50072;50.678;13.938;2023-06-22T11:48:47;99617.19;;;44.63;21.21
63903;BME280;50072;50.678;13.938;2023-06-22T11:51:14;99620.47;;;44.77;20.42
63903;BME280;50072;50.678;13.938;2023-06-22T11:53:40;99609.06;;;44.67;20.75
63903;BME280;50072;50.678;13.938;2023-06-22T11:56:06;99601.75;;;44.98;20.58
63903;BME280;50072;50.678;13.938;2023-06-22T11:58:33;99607.94;;;44.45;21.47
63903;BME280;50072;50.678;13.938;2023-06-22T12:00:59;99606.22;;;45.54;20.08
63903;BME280;50072;50.678;13.938;2023-06-22T12:03:24;99596.34;;;45.24;20.05
63903;BME280;50072;50.678;13.938;2023-06-22T12:05:51;99591.13;;;45.80;20.19
63903;BME280;50072;50.678;13.938;2023-06-22T12:08:18;99594.34;;;44.92;21.00
63903;BME280;50072;50.678;13.938;2023-06-22T12:10:44;99589.03;;;44.68;21.05
63903;BME280;50072;50.678;13.938;2023-06-22T12:13:11;99576.22;;;45.15;20.42
63903;BME280;50072;50.678;13.938;2023-06-22T12:15:37;99587.13;;;45.01;19.99
63903;BME280;50072;50.678;13.938;2023-06-22T12:18:04;99570.88;;;44.37;19.85
63903;BME280;50072;50.678;13.938;2023-06-22T12:20:30;99578.88;;;44.01;20.52
63903;BME280;50072;50.678;13.938;2023-06-22T12:22:58;99570.66;;;45.25;19.17
63903;BME280;50072;50.678;13.938;2023-06-22T12:25:24;99562.56;;;45.39;19.35
63903;BME280;50072;50.678;13.938;2023-06-22T12:27:52;99566.00;;;45.09;20.00
63903;BME280;50072;50.678;13.938;2023-06-22T12:30:18;99555.59;;;45.14;20.14
63903;BME280;50072;50.678;13.938;2023-06-22T12:32:44;99552.31;;;43.96;21.00
63903;BME280;50072;50.678;13.938;2023-06-22T12:35:10;99563.56;;;44.63;20.42
63903;BME280;50072;50.678;13.938;2023-06-22T12:37:41;99554.59;;;44.00;20.85
63903;BME280;50072;50.678;13.938;2023-06-22T12:40:10;99545.56;;;43.98;20.17
63903;BME280;50072;50.678;13.938;2023-06-22T12:42:37;99553.03;;;44.31;20.19
63903;BME280;50072;50.678;13.938;2023-06-22T12:45:04;99542.34;;;44.33;20.26
63903;BME280;50072;50.678;13.938;2023-06-22T12:47:31;99541.75;;;45.45;19.20
63903;BME280;50072;50.678;13.938;2023-06-22T12:49:59;99543.31;;;44.98;19.98
63903;BME280;50072;50.678;13.938;2023-06-22T12:52:27;99539.06;;;44.41;20.43